sensor_id;sensor_type;location;lat;lon;timestamp;temperature;humidity
22132;DHT22;11232;51.748;19.390;2022-09-12T00:01:24;9.50;99.90
22132;DHT22;11232;51.748;19.390;2022-09-12T00:03:54;9.50;99.90
22132;DHT22;11232;51.748;19.390;2022-09-12T00:06:26;9.40;99.90
22132;DHT22;11232;51.748;19.390;2022-09-12T00:08:58;9.40;99.90
22132;DHT22;11232;51.748;19.390;2022-09-12T00:11:24;9.40;99.90
22132;DHT22;11232;51.748;19.390;2022-09-12T00:13:51;9.40;99.90
22132;DHT22;11232;51.748;19.390;2022-09-12T00:16:22;9.40;99.90
22132;DHT22;11232;51.748;19.390;2022-09-12T00:18:48;9.40;99.90
22132;DHT22;11232;51.748;19.390;2022-09-12T00:21:15;9.30;99.90
22132;DHT22;11232;51.748;19.390;2022-09-12T00:23:40;9.30;99.90
22132;DHT22;11232;51.748;19.390;2022-09-12T00:26:06;10.60;99.90
22132;DHT22;11232;51.748;19.390;2022-09-12T00:28:33;9.30;99.90
22132;DHT22;11232;51.748;19.390;2022-09-12T00:31:02;9.80;99.90
22132;DHT22;11232;51.748;19.390;2022-09-12T00:33:27;9.30;99.90
22132;DHT22;11232;51.748;19.390;2022-09-12T00:35:53;9.90;99.90
22132;DHT22;11232;51.748;19.390;2022-09-12T00:38:19;9.20;99.90
22132;DHT22;11232;51.748;19.390;2022-09-12T00:40:45;9.20;99.90
22132;DHT22;11232;51.748;19.390;2022-09-12T00:43:38;10.00;99.90
22132;DHT22;11232;51.748;19.390;2022-09-12T00:46:25;9.20;99.90
22132;DHT22;11232;51.748;19.390;2022-09-12T00:51:33;9.10;99.90
22132;DHT22;11232;51.748;19.390;2022-09-12T00:54:03;9.10;99.90
22132;DHT22;11232;51.748;19.390;2022-09-12T00:56:30;9.10;99.90
22132;DHT22;11232;51.748;19.390;2022-09-12T00:59:07;9.10;99.90
22132;DHT22;11232;51.748;19.390;2022-09-12T01:01:35;9.10;99.90
22132;DHT22;11232;51.748;19.390;2022-09-12T01:04:01;9.10;99.90
22132;DHT22;11232;51.748;19.390;2022-09-12T01:06:32;9.00;99.90
22132;DHT22;11232;51.748;19.390;2022-09-12T01:08:59;9.70;99.90
22132;DHT22;11232;51.748;19.390;2022-09-12T01:11:28;9.00;99.90
22132;DHT22;11232;51.748;19.390;2022-09-12T01:13:54;10.40;99.90
22132;DHT22;11232;51.748;19.390;2022-09-12T01:16:20;9.00;99.90
22132;DHT22;11232;51.748;19.390;2022-09-12T01:21:32;8.90;99.90
22132;DHT22;11232;51.748;19.390;2022-09-12T01:26:55;8.90;99.90
22132;DHT22;11232;51.748;19.390;2022-09-12T01:42:30;8.80;99.90
22132;DHT22;11232;51.748;19.390;2022-09-12T01:45:10;8.80;99.90
22132;DHT22;11232;51.748;19.390;2022-09-12T01:50:22;8.80;99.90
22132;DHT22;11232;51.748;19.390;2022-09-12T01:53:03;8.80;99.90
22132;DHT22;11232;51.748;19.390;2022-09-12T01:55:37;8.80;99.90
22132;DHT22;11232;51.748;19.390;2022-09-12T01:58:19;8.70;99.90
22132;DHT22;11232;51.748;19.390;2022-09-12T02:01:43;8.70;99.90
22132;DHT22;11232;51.748;19.390;2022-09-12T02:06:34;8.70;99.90
22132;DHT22;11232;51.748;19.390;2022-09-12T02:09:21;8.70;99.90
22132;DHT22;11232;51.748;19.390;2022-09-12T02:11:51;8.80;99.90
22132;DHT22;11232;51.748;19.390;2022-09-12T02:14:42;8.60;99.90
22132;DHT22;11232;51.748;19.390;2022-09-12T02:17:12;8.60;99.90
22132;DHT22;11232;51.748;19.390;2022-09-12T02:19:53;8.60;99.90
22132;DHT22;11232;51.748;19.390;2022-09-12T02:22:22;8.60;99.90
22132;DHT22;11232;51.748;19.390;2022-09-12T02:24:51;8.60;99.90
22132;DHT22;11232;51.748;19.390;2022-09-12T02:27:54;9.50;99.90
22132;DHT22;11232;51.748;19.390;2022-09-12T02:30:23;8.60;99.90
22132;DHT22;11232;51.748;19.390;2022-09-12T02:36:29;8.60;99.90
22132;DHT22;11232;51.748;19.390;2022-09-12T02:38:57;8.60;99.90
22132;DHT22;11232;51.748;19.390;2022-09-12T02:41:23;8.50;99.90
22132;DHT22;11232;51.748;19.390;2022-09-12T02:43:50;8.60;99.90
22132;DHT22;11232;51.748;19.390;2022-09-12T02:46:24;8.50;99.90
22132;DHT22;11232;51.748;19.390;2022-09-12T02:48:51;8.60;99.90
22132;DHT22;11232;51.748;19.390;2022-09-12T02:51:17;9.90;99.90
22132;DHT22;11232;51.748;19.390;2022-09-12T02:53:43;8.50;99.90
22132;DHT22;11232;51.748;19.390;2022-09-12T02:56:14;8.50;99.90
22132;DHT22;11232;51.748;19.390;2022-09-12T02:58:41;8.50;99.90
22132;DHT22;11232;51.748;19.390;2022-09-12T03:01:28;8.50;99.90
22132;DHT22;11232;51.748;19.390;2022-09-12T03:06:34;8.50;99.90
22132;DHT22;11232;51.748;19.390;2022-09-12T03:09:10;8.50;99.90
22132;DHT22;11232;51.748;19.390;2022-09-12T03:19:57;8.40;99.90
22132;DHT22;11232;51.748;19.390;2022-09-12T03:22:30;8.40;99.90
22132;DHT22;11232;51.748;19.390;2022-09-12T03:25:15;8.30;99.90
22132;DHT22;11232;51.748;19.390;2022-09-12T03:30:16;8.30;99.90
22132;DHT22;11232;51.748;19.390;2022-09-12T03:32:50;8.40;99.90
22132;DHT22;11232;51.748;19.390;2022-09-12T03:35:18;8.40;99.90
22132;DHT22;11232;51.748;19.390;2022-09-12T03:37:46;8.40;99.90
22132;DHT22;11232;51.748;19.390;2022-09-12T03:40:12;8.30;99.90
22132;DHT22;11232;51.748;19.390;2022-09-12T03:42:38;9.10;99.90
22132;DHT22;11232;51.748;19.390;2022-09-12T03:45:05;8.50;99.90
22132;DHT22;11232;51.748;19.390;2022-09-12T03:47:31;8.40;99.90
22132;DHT22;11232;51.748;19.390;2022-09-12T03:49:56;8.40;99.90
22132;DHT22;11232;51.748;19.390;2022-09-12T03:52:22;8.40;99.90
22132;DHT22;11232;51.748;19.390;2022-09-12T03:54:48;8.40;99.90
22132;DHT22;11232;51.748;19.390;2022-09-12T03:57:14;9.40;99.90
22132;DHT22;11232;51.748;19.390;2022-09-12T03:59:39;8.50;99.90
22132;DHT22;11232;51.748;19.390;2022-09-12T04:02:05;9.10;99.90
22132;DHT22;11232;51.748;19.390;2022-09-12T04:04:31;9.00;99.90
22132;DHT22;11232;51.748;19.390;2022-09-12T04:06:57;8.60;99.90
22132;DHT22;11232;51.748;19.390;2022-09-12T04:09:23;8.70;99.90
22132;DHT22;11232;51.748;19.390;2022-09-12T04:11:48;8.70;99.90
22132;DHT22;11232;51.748;19.390;2022-09-12T04:14:14;8.80;99.90
22132;DHT22;11232;51.748;19.390;2022-09-12T04:16:39;8.90;99.90
22132;DHT22;11232;51.748;19.390;2022-09-12T04:19:05;9.70;99.90
22132;DHT22;11232;51.748;19.390;2022-09-12T04:21:31;10.30;99.90
22132;DHT22;11232;51.748;19.390;2022-09-12T04:23:57;9.00;99.90
22132;DHT22;11232;51.748;19.390;2022-09-12T04:26:22;9.10;99.90
22132;DHT22;11232;51.748;19.390;2022-09-12T04:28:52;9.20;99.90
22132;DHT22;11232;51.748;19.390;2022-09-12T04:31:18;9.30;99.90
22132;DHT22;11232;51.748;19.390;2022-09-12T04:33:51;10.00;99.90
22132;DHT22;11232;51.748;19.390;2022-09-12T04:36:17;9.40;99.90
22132;DHT22;11232;51.748;19.390;2022-09-12T04:38:43;9.50;99.90
22132;DHT22;11232;51.748;19.390;2022-09-12T04:41:27;9.60;99.90
22132;DHT22;11232;51.748;19.390;2022-09-12T04:43:59;9.60;99.90
22132;DHT22;11232;51.748;19.390;2022-09-12T04:46:30;10.50;99.90
22132;DHT22;11232;51.748;19.390;2022-09-12T04:48:56;9.70;99.90
22132;DHT22;11232;51.748;19.390;2022-09-12T04:51:27;9.70;99.90
22132;DHT22;11232;51.748;19.390;2022-09-12T04:53:56;9.80;99.90
22132;DHT22;11232;51.748;19.390;2022-09-12T04:56:22;11.20;99.90
22132;DHT22;11232;51.748;19.390;2022-09-12T04:58:48;10.00;99.90
22132;DHT22;11232;51.748;19.390;2022-09-12T05:01:19;10.10;99.90
22132;DHT22;11232;51.748;19.390;2022-09-12T05:03:46;10.10;99.90
22132;DHT22;11232;51.748;19.390;2022-09-12T05:06:24;10.10;99.90
22132;DHT22;11232;51.748;19.390;2022-09-12T05:08:50;10.20;99.90
22132;DHT22;11232;51.748;19.390;2022-09-12T05:11:20;11.10;99.90
22132;DHT22;11232;51.748;19.390;2022-09-12T05:13:46;10.20;99.90
22132;DHT22;11232;51.748;19.390;2022-09-12T05:16:14;10.20;99.90
22132;DHT22;11232;51.748;19.390;2022-09-12T05:18:40;11.70;99.90
22132;DHT22;11232;51.748;19.390;2022-09-12T05:21:09;10.50;99.90
22132;DHT22;11232;51.748;19.390;2022-09-12T05:23:35;11.10;99.90
22132;DHT22;11232;51.748;19.390;2022-09-12T05:26:02;12.50;99.90
22132;DHT22;11232;51.748;19.390;2022-09-12T05:28:30;11.00;99.90
22132;DHT22;11232;51.748;19.390;2022-09-12T05:31:17;11.20;99.90
22132;DHT22;11232;51.748;19.390;2022-09-12T05:33:45;11.60;99.90
22132;DHT22;11232;51.748;19.390;2022-09-12T05:36:13;11.80;99.90
22132;DHT22;11232;51.748;19.390;2022-09-12T05:38:39;11.90;99.90
22132;DHT22;11232;51.748;19.390;2022-09-12T05:41:10;14.00;99.90
22132;DHT22;11232;51.748;19.390;2022-09-12T05:43:37;12.10;99.90
22132;DHT22;11232;51.748;19.390;2022-09-12T05:46:05;13.60;99.90
22132;DHT22;11232;51.748;19.390;2022-09-12T05:48:35;12.30;99.90
22132;DHT22;11232;51.748;19.390;2022-09-12T05:51:16;12.40;99.90
22132;DHT22;11232;51.748;19.390;2022-09-12T05:53:56;12.60;99.90
22132;DHT22;11232;51.748;19.390;2022-09-12T05:56:24;12.70;99.90
22132;DHT22;11232;51.748;19.390;2022-09-12T05:58:59;12.90;99.90
22132;DHT22;11232;51.748;19.390;2022-09-12T06:01:26;13.10;99.90
22132;DHT22;11232;51.748;19.390;2022-09-12T06:03:54;13.50;99.90
22132;DHT22;11232;51.748;19.390;2022-09-12T06:06:22;13.70;99.90
22132;DHT22;11232;51.748;19.390;2022-09-12T06:08:51;14.00;99.90
22132;DHT22;11232;51.748;19.390;2022-09-12T06:11:23;14.20;99.90
22132;DHT22;11232;51.748;19.390;2022-09-12T06:13:50;14.20;99.90
22132;DHT22;11232;51.748;19.390;2022-09-12T06:16:20;14.30;99.90
22132;DHT22;11232;51.748;19.390;2022-09-12T06:19:06;14.30;99.90
22132;DHT22;11232;51.748;19.390;2022-09-12T06:21:33;14.30;99.90
22132;DHT22;11232;51.748;19.390;2022-09-12T06:24:00;14.90;99.90
22132;DHT22;11232;51.748;19.390;2022-09-12T06:26:27;14.50;99.90
22132;DHT22;11232;51.748;19.390;2022-09-12T06:28:54;14.60;99.90
22132;DHT22;11232;51.748;19.390;2022-09-12T06:31:32;14.80;99.90
22132;DHT22;11232;51.748;19.390;2022-09-12T06:34:06;15.00;99.90
22132;DHT22;11232;51.748;19.390;2022-09-12T06:36:35;15.10;99.90
22132;DHT22;11232;51.748;19.390;2022-09-12T06:39:04;16.80;99.90
22132;DHT22;11232;51.748;19.390;2022-09-12T06:41:30;15.60;99.90
22132;DHT22;11232;51.748;19.390;2022-09-12T06:43:57;15.80;99.90
22132;DHT22;11232;51.748;19.390;2022-09-12T06:46:23;16.70;99.90
22132;DHT22;11232;51.748;19.390;2022-09-12T06:48:49;16.20;99.90
22132;DHT22;11232;51.748;19.390;2022-09-12T06:51:17;17.30;99.90
22132;DHT22;11232;51.748;19.390;2022-09-12T06:53:43;16.90;99.90
22132;DHT22;11232;51.748;19.390;2022-09-12T06:56:14;17.00;99.90
22132;DHT22;11232;51.748;19.390;2022-09-12T06:58:41;17.60;99.90
22132;DHT22;11232;51.748;19.390;2022-09-12T07:03:39;18.30;99.90
22132;DHT22;11232;51.748;19.390;2022-09-12T07:06:08;18.40;99.90
22132;DHT22;11232;51.748;19.390;2022-09-12T07:08:34;18.60;99.90
22132;DHT22;11232;51.748;19.390;2022-09-12T07:13:38;19.20;99.90
22132;DHT22;11232;51.748;19.390;2022-09-12T07:16:05;19.40;99.90
22132;DHT22;11232;51.748;19.390;2022-09-12T07:18:34;19.50;99.90
22132;DHT22;11232;51.748;19.390;2022-09-12T07:21:00;19.80;99.90
22132;DHT22;11232;51.748;19.390;2022-09-12T07:23:27;20.00;99.90
22132;DHT22;11232;51.748;19.390;2022-09-12T07:25:54;20.20;99.90
22132;DHT22;11232;51.748;19.390;2022-09-12T07:28:22;20.30;99.90
22132;DHT22;11232;51.748;19.390;2022-09-12T07:30:48;20.40;99.90
22132;DHT22;11232;51.748;19.390;2022-09-12T07:33:14;20.90;99.90
22132;DHT22;11232;51.748;19.390;2022-09-12T07:35:39;21.20;99.90
22132;DHT22;11232;51.748;19.390;2022-09-12T07:38:05;21.20;99.90
22132;DHT22;11232;51.748;19.390;2022-09-12T07:40:31;21.50;99.90
22132;DHT22;11232;51.748;19.390;2022-09-12T07:42:56;22.10;99.90
22132;DHT22;11232;51.748;19.390;2022-09-12T07:45:23;23.00;99.90
22132;DHT22;11232;51.748;19.390;2022-09-12T07:47:53;24.30;96.30
22132;DHT22;11232;51.748;19.390;2022-09-12T07:50:19;25.20;93.00
22132;DHT22;11232;51.748;19.390;2022-09-12T07:52:44;25.80;87.60
22132;DHT22;11232;51.748;19.390;2022-09-12T07:55:10;27.10;85.70
22132;DHT22;11232;51.748;19.390;2022-09-12T07:57:36;28.20;80.60
22132;DHT22;11232;51.748;19.390;2022-09-12T08:00:03;28.90;76.60
22132;DHT22;11232;51.748;19.390;2022-09-12T08:02:29;28.90;74.60
22132;DHT22;11232;51.748;19.390;2022-09-12T08:04:55;29.10;73.50
22132;DHT22;11232;51.748;19.390;2022-09-12T08:07:20;29.40;72.30
22132;DHT22;11232;51.748;19.390;2022-09-12T08:09:46;30.80;69.40
22132;DHT22;11232;51.748;19.390;2022-09-12T08:12:12;31.30;66.50
22132;DHT22;11232;51.748;19.390;2022-09-12T08:14:37;30.50;66.10
22132;DHT22;11232;51.748;19.390;2022-09-12T08:17:03;28.90;69.50
22132;DHT22;11232;51.748;19.390;2022-09-12T08:19:29;28.90;68.80
22132;DHT22;11232;51.748;19.390;2022-09-12T08:21:56;28.00;69.40
22132;DHT22;11232;51.748;19.390;2022-09-12T08:24:21;27.20;73.40
22132;DHT22;11232;51.748;19.390;2022-09-12T08:26:47;26.50;74.70
22132;DHT22;11232;51.748;19.390;2022-09-12T08:29:12;26.40;77.60
22132;DHT22;11232;51.748;19.390;2022-09-12T08:31:38;27.90;74.00
22132;DHT22;11232;51.748;19.390;2022-09-12T08:34:05;29.00;69.30
22132;DHT22;11232;51.748;19.390;2022-09-12T08:36:32;28.40;70.60
22132;DHT22;11232;51.748;19.390;2022-09-12T08:39:01;27.70;70.40
22132;DHT22;11232;51.748;19.390;2022-09-12T08:41:46;28.70;69.60
22132;DHT22;11232;51.748;19.390;2022-09-12T08:52:26;36.10;54.40
22132;DHT22;11232;51.748;19.390;2022-09-12T08:54:52;34.30;54.00
22132;DHT22;11232;51.748;19.390;2022-09-12T08:57:20;32.40;56.80
22132;DHT22;11232;51.748;19.390;2022-09-12T08:59:46;31.80;58.90
22132;DHT22;11232;51.748;19.390;2022-09-12T09:04:57;32.10;59.50
22132;DHT22;11232;51.748;19.390;2022-09-12T09:07:51;32.10;58.10
22132;DHT22;11232;51.748;19.390;2022-09-12T09:16:04;30.60;62.30
22132;DHT22;11232;51.748;19.390;2022-09-12T09:18:33;33.60;57.20
22132;DHT22;11232;51.748;19.390;2022-09-12T09:21:21;36.30;53.40
22132;DHT22;11232;51.748;19.390;2022-09-12T09:23:54;34.70;52.90
22132;DHT22;11232;51.748;19.390;2022-09-12T09:26:36;34.40;53.70
22132;DHT22;11232;51.748;19.390;2022-09-12T09:29:17;35.80;52.80
22132;DHT22;11232;51.748;19.390;2022-09-12T09:31:47;35.90;50.80
22132;DHT22;11232;51.748;19.390;2022-09-12T09:34:18;35.10;51.80
22132;DHT22;11232;51.748;19.390;2022-09-12T09:44:53;40.20;46.00
22132;DHT22;11232;51.748;19.390;2022-09-12T09:47:20;40.40;45.00
22132;DHT22;11232;51.748;19.390;2022-09-12T09:49:46;41.10;44.60
22132;DHT22;11232;51.748;19.390;2022-09-12T09:52:15;40.10;44.70
22132;DHT22;11232;51.748;19.390;2022-09-12T09:54:51;38.30;46.20
22132;DHT22;11232;51.748;19.390;2022-09-12T09:57:38;37.70;46.90
22132;DHT22;11232;51.748;19.390;2022-09-12T10:00:24;36.00;47.10
22132;DHT22;11232;51.748;19.390;2022-09-12T10:02:58;33.10;52.80
22132;DHT22;11232;51.748;19.390;2022-09-12T10:05:24;34.40;51.30
22132;DHT22;11232;51.748;19.390;2022-09-12T10:07:51;36.20;49.90
22132;DHT22;11232;51.748;19.390;2022-09-12T10:10:18;39.10;47.20
22132;DHT22;11232;51.748;19.390;2022-09-12T10:12:45;40.40;45.20
22132;DHT22;11232;51.748;19.390;2022-09-12T10:15:20;38.70;44.90
22132;DHT22;11232;51.748;19.390;2022-09-12T10:17:48;35.40;46.90
22132;DHT22;11232;51.748;19.390;2022-09-12T10:22:58;37.00;47.20
22132;DHT22;11232;51.748;19.390;2022-09-12T10:25:25;38.10;45.40
22132;DHT22;11232;51.748;19.390;2022-09-12T10:27:57;39.70;44.70
22132;DHT22;11232;51.748;19.390;2022-09-12T10:30:25;38.80;44.10
22132;DHT22;11232;51.748;19.390;2022-09-12T10:32:57;39.40;42.70
22132;DHT22;11232;51.748;19.390;2022-09-12T10:35:28;40.50;43.10
22132;DHT22;11232;51.748;19.390;2022-09-12T10:38:05;41.30;41.70
22132;DHT22;11232;51.748;19.390;2022-09-12T10:40:36;42.00;41.30
22132;DHT22;11232;51.748;19.390;2022-09-12T10:43:37;41.90;41.80
22132;DHT22;11232;51.748;19.390;2022-09-12T10:48:41;38.00;44.20
22132;DHT22;11232;51.748;19.390;2022-09-12T10:53:55;37.50;45.20
22132;DHT22;11232;51.748;19.390;2022-09-12T10:56:30;35.90;46.40
22132;DHT22;11232;51.748;19.390;2022-09-12T11:06:47;33.70;49.50
22132;DHT22;11232;51.748;19.390;2022-09-12T11:12:07;31.20;52.60
22132;DHT22;11232;51.748;19.390;2022-09-12T11:14:51;31.10;53.30
22132;DHT22;11232;51.748;19.390;2022-09-12T11:17:40;32.60;52.40
22132;DHT22;11232;51.748;19.390;2022-09-12T11:26:16;31.30;53.70
22132;DHT22;11232;51.748;19.390;2022-09-12T11:34:33;34.10;49.60
22132;DHT22;11232;51.748;19.390;2022-09-12T11:39:50;33.70;50.70
22132;DHT22;11232;51.748;19.390;2022-09-12T11:42:27;35.10;49.20
22132;DHT22;11232;51.748;19.390;2022-09-12T11:45:03;36.50;46.70
22132;DHT22;11232;51.748;19.390;2022-09-12T11:47:33;37.60;45.80
22132;DHT22;11232;51.748;19.390;2022-09-12T11:50:03;38.20;45.50
22132;DHT22;11232;51.748;19.390;2022-09-12T11:52:36;39.20;44.80
22132;DHT22;11232;51.748;19.390;2022-09-12T11:55:26;40.70;42.50
22132;DHT22;11232;51.748;19.390;2022-09-12T11:57:56;41.20;41.40
22132;DHT22;11232;51.748;19.390;2022-09-12T12:05:58;41.40;40.60
22132;DHT22;11232;51.748;19.390;2022-09-12T12:08:26;39.00;44.30
22132;DHT22;11232;51.748;19.390;2022-09-12T12:10:59;36.90;46.20
22132;DHT22;11232;51.748;19.390;2022-09-12T12:13:31;33.80;50.30
22132;DHT22;11232;51.748;19.390;2022-09-12T12:16:11;31.20;54.40
22132;DHT22;11232;51.748;19.390;2022-09-12T12:18:37;29.40;57.40
22132;DHT22;11232;51.748;19.390;2022-09-12T12:26:42;25.50;65.30
22132;DHT22;11232;51.748;19.390;2022-09-12T12:34:46;23.80;70.80
22132;DHT22;11232;51.748;19.390;2022-09-12T12:52:51;23.00;73.60
22132;DHT22;11232;51.748;19.390;2022-09-12T12:55:37;22.80;73.80
22132;DHT22;11232;51.748;19.390;2022-09-12T12:58:32;23.10;72.90
22132;DHT22;11232;51.748;19.390;2022-09-12T13:01:17;23.20;72.80
22132;DHT22;11232;51.748;19.390;2022-09-12T13:03:46;23.00;71.70
22132;DHT22;11232;51.748;19.390;2022-09-12T13:06:38;22.70;73.00
22132;DHT22;11232;51.748;19.390;2022-09-12T13:09:08;22.40;76.10
22132;DHT22;11232;51.748;19.390;2022-09-12T13:11:42;22.50;73.70
22132;DHT22;11232;51.748;19.390;2022-09-12T13:17:04;22.70;74.10
22132;DHT22;11232;51.748;19.390;2022-09-12T13:19:32;22.40;75.10
22132;DHT22;11232;51.748;19.390;2022-09-12T13:22:04;22.20;76.40
22132;DHT22;11232;51.748;19.390;2022-09-12T13:24:31;22.10;76.50
22132;DHT22;11232;51.748;19.390;2022-09-12T13:26:57;22.40;76.30
22132;DHT22;11232;51.748;19.390;2022-09-12T13:29:25;22.70;76.60
22132;DHT22;11232;51.748;19.390;2022-09-12T13:31:57;22.80;75.10
22132;DHT22;11232;51.748;19.390;2022-09-12T13:34:59;22.50;75.90
22132;DHT22;11232;51.748;19.390;2022-09-12T13:40:58;23.50;75.80
22132;DHT22;11232;51.748;19.390;2022-09-12T13:43:40;22.40;74.30
22132;DHT22;11232;51.748;19.390;2022-09-12T13:46:08;22.50;74.70
22132;DHT22;11232;51.748;19.390;2022-09-12T13:48:34;22.10;74.10
22132;DHT22;11232;51.748;19.390;2022-09-12T13:51:01;21.70;75.10
22132;DHT22;11232;51.748;19.390;2022-09-12T13:53:35;21.30;76.50
22132;DHT22;11232;51.748;19.390;2022-09-12T13:56:04;20.90;77.80
22132;DHT22;11232;51.748;19.390;2022-09-12T13:58:31;20.80;79.30
22132;DHT22;11232;51.748;19.390;2022-09-12T14:01:19;20.70;78.20
22132;DHT22;11232;51.748;19.390;2022-09-12T14:03:51;21.00;79.30
22132;DHT22;11232;51.748;19.390;2022-09-12T14:06:47;21.10;79.50
22132;DHT22;11232;51.748;19.390;2022-09-12T14:09:35;21.20;78.70
22132;DHT22;11232;51.748;19.390;2022-09-12T14:12:04;21.10;77.90
22132;DHT22;11232;51.748;19.390;2022-09-12T14:14:45;21.20;77.30
22132;DHT22;11232;51.748;19.390;2022-09-12T14:17:16;21.10;76.40
22132;DHT22;11232;51.748;19.390;2022-09-12T14:19:43;21.10;77.90
22132;DHT22;11232;51.748;19.390;2022-09-12T14:22:12;21.10;79.90
22132;DHT22;11232;51.748;19.390;2022-09-12T14:24:46;21.00;77.70
22132;DHT22;11232;51.748;19.390;2022-09-12T14:27:24;20.90;79.10
22132;DHT22;11232;51.748;19.390;2022-09-12T14:30:00;20.70;77.60
22132;DHT22;11232;51.748;19.390;2022-09-12T14:32:26;20.80;80.00
22132;DHT22;11232;51.748;19.390;2022-09-12T14:37:37;20.60;81.70
22132;DHT22;11232;51.748;19.390;2022-09-12T14:40:14;20.50;81.20
22132;DHT22;11232;51.748;19.390;2022-09-12T14:42:40;20.40;81.10
22132;DHT22;11232;51.748;19.390;2022-09-12T14:45:28;20.30;81.40
22132;DHT22;11232;51.748;19.390;2022-09-12T14:47:56;20.30;84.00
22132;DHT22;11232;51.748;19.390;2022-09-12T14:50:25;20.60;84.30
22132;DHT22;11232;51.748;19.390;2022-09-12T14:55:32;20.00;84.70
22132;DHT22;11232;51.748;19.390;2022-09-12T14:58:15;19.90;85.00
22132;DHT22;11232;51.748;19.390;2022-09-12T15:06:22;19.80;86.50
22132;DHT22;11232;51.748;19.390;2022-09-12T15:08:48;19.80;85.70
22132;DHT22;11232;51.748;19.390;2022-09-12T15:11:14;19.70;85.60
22132;DHT22;11232;51.748;19.390;2022-09-12T15:13:40;19.60;86.40
22132;DHT22;11232;51.748;19.390;2022-09-12T15:16:08;19.50;84.90
22132;DHT22;11232;51.748;19.390;2022-09-12T15:18:34;19.40;86.60
22132;DHT22;11232;51.748;19.390;2022-09-12T15:21:02;19.20;88.20
22132;DHT22;11232;51.748;19.390;2022-09-12T15:25:56;19.10;88.00
22132;DHT22;11232;51.748;19.390;2022-09-12T15:28:22;19.10;88.40
22132;DHT22;11232;51.748;19.390;2022-09-12T15:30:50;19.00;89.70
22132;DHT22;11232;51.748;19.390;2022-09-12T15:33:21;18.90;88.30
22132;DHT22;11232;51.748;19.390;2022-09-12T15:35:51;18.90;88.80
22132;DHT22;11232;51.748;19.390;2022-09-12T15:38:17;18.90;89.50
22132;DHT22;11232;51.748;19.390;2022-09-12T15:40:43;18.90;90.00
22132;DHT22;11232;51.748;19.390;2022-09-12T15:43:11;18.90;90.70
22132;DHT22;11232;51.748;19.390;2022-09-12T15:45:38;18.80;91.50
22132;DHT22;11232;51.748;19.390;2022-09-12T15:48:03;18.70;91.20
22132;DHT22;11232;51.748;19.390;2022-09-12T15:50:30;18.70;91.50
22132;DHT22;11232;51.748;19.390;2022-09-12T15:52:56;19.90;92.50
22132;DHT22;11232;51.748;19.390;2022-09-12T15:55:25;18.60;91.70
22132;DHT22;11232;51.748;19.390;2022-09-12T15:57:52;18.80;92.20
22132;DHT22;11232;51.748;19.390;2022-09-12T16:00:18;19.30;91.90
22132;DHT22;11232;51.748;19.390;2022-09-12T16:02:45;18.60;91.70
22132;DHT22;11232;51.748;19.390;2022-09-12T16:05:20;18.50;92.00
22132;DHT22;11232;51.748;19.390;2022-09-12T16:07:46;18.50;92.30
22132;DHT22;11232;51.748;19.390;2022-09-12T16:10:16;18.40;92.20
22132;DHT22;11232;51.748;19.390;2022-09-12T16:12:43;18.40;92.40
22132;DHT22;11232;51.748;19.390;2022-09-12T16:15:18;18.50;92.10
22132;DHT22;11232;51.748;19.390;2022-09-12T16:17:43;18.30;92.60
22132;DHT22;11232;51.748;19.390;2022-09-12T16:20:10;18.20;92.00
22132;DHT22;11232;51.748;19.390;2022-09-12T16:22:36;18.10;92.30
22132;DHT22;11232;51.748;19.390;2022-09-12T16:25:02;18.10;92.20
22132;DHT22;11232;51.748;19.390;2022-09-12T16:27:28;18.00;93.30
22132;DHT22;11232;51.748;19.390;2022-09-12T16:29:55;17.90;93.70
22132;DHT22;11232;51.748;19.390;2022-09-12T16:32:21;17.70;93.70
22132;DHT22;11232;51.748;19.390;2022-09-12T16:34:46;17.60;94.10
22132;DHT22;11232;51.748;19.390;2022-09-12T16:37:12;18.80;94.50
22132;DHT22;11232;51.748;19.390;2022-09-12T16:39:38;17.60;94.20
22132;DHT22;11232;51.748;19.390;2022-09-12T16:42:03;17.50;94.50
22132;DHT22;11232;51.748;19.390;2022-09-12T16:44:29;17.50;94.60
22132;DHT22;11232;51.748;19.390;2022-09-12T16:46:55;17.40;95.30
22132;DHT22;11232;51.748;19.390;2022-09-12T16:49:21;17.30;95.50
22132;DHT22;11232;51.748;19.390;2022-09-12T16:51:46;17.30;96.20
22132;DHT22;11232;51.748;19.390;2022-09-12T16:54:15;17.30;96.50
22132;DHT22;11232;51.748;19.390;2022-09-12T16:56:42;17.20;96.40
22132;DHT22;11232;51.748;19.390;2022-09-12T16:59:07;17.30;96.70
22132;DHT22;11232;51.748;19.390;2022-09-12T17:01:37;17.20;97.20
22132;DHT22;11232;51.748;19.390;2022-09-12T17:04:03;17.10;97.50
22132;DHT22;11232;51.748;19.390;2022-09-12T17:06:31;17.00;97.90
22132;DHT22;11232;51.748;19.390;2022-09-12T17:08:58;16.90;98.60
22132;DHT22;11232;51.748;19.390;2022-09-12T17:11:33;16.90;99.70
22132;DHT22;11232;51.748;19.390;2022-09-12T17:14:01;16.70;99.90
22132;DHT22;11232;51.748;19.390;2022-09-12T17:16:28;16.70;99.90
22132;DHT22;11232;51.748;19.390;2022-09-12T17:18:54;16.60;99.90
22132;DHT22;11232;51.748;19.390;2022-09-12T17:21:20;16.50;99.90
22132;DHT22;11232;51.748;19.390;2022-09-12T17:23:46;16.30;99.90
22132;DHT22;11232;51.748;19.390;2022-09-12T17:26:12;16.30;99.90
22132;DHT22;11232;51.748;19.390;2022-09-12T17:28:39;16.30;99.90
22132;DHT22;11232;51.748;19.390;2022-09-12T17:31:07;16.10;99.90
22132;DHT22;11232;51.748;19.390;2022-09-12T17:33:33;16.10;99.90
22132;DHT22;11232;51.748;19.390;2022-09-12T17:36:01;16.10;99.90
22132;DHT22;11232;51.748;19.390;2022-09-12T17:38:30;16.10;99.90
22132;DHT22;11232;51.748;19.390;2022-09-12T17:40:56;16.10;99.90
22132;DHT22;11232;51.748;19.390;2022-09-12T17:43:22;16.00;99.90
22132;DHT22;11232;51.748;19.390;2022-09-12T17:45:54;15.90;99.90
22132;DHT22;11232;51.748;19.390;2022-09-12T17:48:19;16.10;99.90
22132;DHT22;11232;51.748;19.390;2022-09-12T17:50:46;15.90;99.90
22132;DHT22;11232;51.748;19.390;2022-09-12T17:53:12;15.80;99.90
22132;DHT22;11232;51.748;19.390;2022-09-12T17:55:37;15.80;99.90
22132;DHT22;11232;51.748;19.390;2022-09-12T17:58:03;15.70;99.90
22132;DHT22;11232;51.748;19.390;2022-09-12T18:00:30;15.80;99.90
22132;DHT22;11232;51.748;19.390;2022-09-12T18:03:22;15.70;99.90
22132;DHT22;11232;51.748;19.390;2022-09-12T18:05:51;15.70;99.90
22132;DHT22;11232;51.748;19.390;2022-09-12T18:08:18;15.60;99.90
22132;DHT22;11232;51.748;19.390;2022-09-12T18:10:43;15.50;99.90
22132;DHT22;11232;51.748;19.390;2022-09-12T18:13:09;15.40;99.90
22132;DHT22;11232;51.748;19.390;2022-09-12T18:15:35;15.40;99.90
22132;DHT22;11232;51.748;19.390;2022-09-12T18:18:01;15.50;99.90